Time;durP1;ratioP1;P1;durP2;ratioP2;P2;SDS_P1;SDS_P2;PMS_P1;PMS_P2;Temp;Humidity;BMP_temperature;BMP_pressure;BME280_temperature;BME280_humidity;BME280_pressure;Samples;Min_cycle;Max_cycle;Signal;HPM_P1;HPM_P2
2023/01/12 00:25:55;;;;;;;23.80;11.20;;;;;;;-7.86;70.35;100364.75;104877;1287;613994;-39
2023/01/12 00:28:22;;;;;;;21.90;11.30;;;;;;;-7.27;68.81;100354.73;106503;1266;161160;-39
2023/01/12 00:30:50;;;;;;;24.70;11.40;;;;;;;-7.20;68.22;100355.23;106502;1266;60308;-39
2023/01/12 00:33:18;;;;;;;31.80;14.10;;;;;;;-7.18;67.77;100353.11;106591;1266;73322;-39
2023/01/12 00:35:46;;;;;;;20.90;10.70;;;;;;;-7.18;67.36;100353.71;106591;1266;70365;-39
2023/01/12 00:38:13;;;;;;;22.70;10.90;;;;;;;-7.24;66.95;100350.08;106590;1266;73843;-39
2023/01/12 00:40:40;;;;;;;26.90;13.20;;;;;;;-7.29;66.42;100344.87;106580;1267;59461;-39
2023/01/12 00:45:53;;;;;;;26.50;12.40;;;;;;;-7.51;66.47;100351.38;106642;1270;73754;-39
2023/01/12 00:48:21;;;;;;;32.20;17.40;;;;;;;-7.65;66.44;100349.95;106705;1266;70159;-39
2023/01/12 00:50:49;;;;;;;37.60;16.40;;;;;;;-7.69;66.41;100349.91;106608;1267;74166;-39
2023/01/12 00:53:16;;;;;;;31.60;15.60;;;;;;;-7.69;66.18;100349.88;106675;1266;62278;-39
2023/01/12 00:55:44;;;;;;;28.00;12.30;;;;;;;-7.66;66.40;100351.96;106699;1270;59718;-39
2023/01/12 00:58:12;;;;;;;27.30;10.20;;;;;;;-7.58;66.25;100350.86;106694;1266;73630;-39
2023/01/12 01:00:39;;;;;;;24.40;11.20;;;;;;;-7.53;66.57;100352.32;106716;1266;70164;-39
2023/01/12 01:03:06;;;;;;;21.40;11.60;;;;;;;-7.52;66.18;100347.49;106682;1270;74712;-39
2023/01/12 01:05:33;;;;;;;27.90;12.80;;;;;;;-7.54;66.35;100351.96;107240;1256;62883;-40
2023/01/12 01:08:02;;;;;;;25.00;12.40;;;;;;;-7.55;66.27;100355.54;107256;1260;59235;-39
2023/01/12 01:10:29;;;;;;;20.60;10.90;;;;;;;-7.56;66.14;100356.08;107191;1254;74166;-39
2023/01/12 01:12:56;;;;;;;22.10;10.50;;;;;;;-7.57;66.55;100362.16;107375;1260;70301;-39
2023/01/12 01:15:24;;;;;;;26.00;12.30;;;;;;;-7.57;66.53;100361.52;107436;1257;72320;-39
2023/01/12 01:17:51;;;;;;;22.50;10.50;;;;;;;-7.60;66.46;100371.85;107354;1254;62546;-39
2023/01/12 01:20:18;;;;;;;21.70;10.30;;;;;;;-7.53;66.66;100366.70;107325;1260;59474;-39
2023/01/12 01:22:45;;;;;;;22.30;10.20;;;;;;;-7.41;66.72;100361.69;107449;1254;73172;-39
2023/01/12 01:25:12;;;;;;;28.60;11.40;;;;;;;-7.30;66.49;100361.17;107293;1259;70185;-39
2023/01/12 01:27:39;;;;;;;27.30;12.10;;;;;;;-7.21;66.13;100361.77;107304;1257;75067;-39
2023/01/12 01:30:07;;;;;;;23.40;11.00;;;;;;;-7.16;66.53;100368.92;107289;1259;59720;-39
2023/01/12 01:32:35;;;;;;;22.70;11.70;;;;;;;-7.14;66.22;100367.13;107334;1254;59736;-40
2023/01/12 01:35:02;;;;;;;25.20;11.80;;;;;;;-7.11;66.00;100366.73;107294;1254;74779;-39
2023/01/12 01:37:29;;;;;;;29.20;11.40;;;;;;;-7.12;66.23;100367.92;107230;1259;70370;-40
2023/01/12 01:39:57;;;;;;;27.80;12.30;;;;;;;-7.16;66.09;100365.15;107251;1254;74074;-39
2023/01/12 01:42:26;;;;;;;29.90;12.90;;;;;;;-7.20;66.11;100372.73;107199;1254;60680;-39
2023/01/12 01:44:56;;;;;;;30.70;12.70;;;;;;;-7.25;66.45;100369.95;107311;1254;61654;-39
2023/01/12 01:47:48;;;;;;;32.10;12.40;;;;;;;-7.29;66.33;100371.38;107313;1254;75168;-39
2023/01/12 01:50:23;;;;;;;23.70;11.40;;;;;;;-7.30;66.40;100376.77;107378;1254;67440;-40
2023/01/12 01:53:04;;;;;;;24.00;11.10;;;;;;;-7.24;66.61;100372.95;105796;1260;1003450;-40
2023/01/12 01:55:35;;;;;;;24.10;10.90;;;;;;;-7.13;66.70;100366.42;107210;1258;61377;-39
2023/01/12 01:58:08;;;;;;;24.70;11.50;;;;;;;-7.03;67.03;100374.05;107271;1254;59641;-39
2023/01/12 02:00:36;;;;;;;22.10;11.10;;;;;;;-6.95;66.80;100372.84;107282;1254;72382;-39
2023/01/12 02:03:03;;;;;;;23.20;11.50;;;;;;;-6.89;66.43;100375.48;106573;1254;1003281;-39
2023/01/12 02:05:31;;;;;;;23.50;11.80;;;;;;;-6.83;66.58;100377.39;107244;1255;73383;-39
2023/01/12 06:48:10;;;;;;;18.20;10.90;;;;;;;-5.29;84.71;100259.30;105267;1280;613557;-39
2023/01/12 06:50:37;;;;;;;23.50;11.20;;;;;;;-4.74;82.63;100259.05;106452;1267;216709;-39
2023/01/12 06:53:05;;;;;;;20.60;11.10;;;;;;;-4.72;82.73;100261.25;106704;1265;60591;-39
2023/01/12 06:55:33;;;;;;;22.60;12.00;;;;;;;-4.72;82.20;100255.75;106689;1266;70779;-39
2023/01/12 06:58:02;;;;;;;25.60;12.20;;;;;;;-4.77;81.86;100263.39;106711;1268;70957;-39
2023/01/12 07:00:30;;;;;;;23.10;12.20;;;;;;;-4.83;81.67;100267.25;106013;1266;1002995;-39
2023/01/12 07:02:57;;;;;;;22.10;11.20;;;;;;;-4.84;81.01;100276.02;106726;1265;60788;-39
2023/01/12 07:05:24;;;;;;;25.80;11.60;;;;;;;-4.79;80.70;100276.09;106724;1266;61823;-39
2023/01/12 07:07:57;;;;;;;23.40;12.30;;;;;;;-4.79;80.28;100275.14;106694;1266;72012;-39
2023/01/12 07:10:25;;;;;;;22.80;11.80;;;;;;;-4.84;80.20;100277.48;106756;1268;69850;-39
2023/01/12 07:12:52;;;;;;;22.50;12.40;;;;;;;-4.88;80.17;100284.92;106813;1266;74193;-39
2023/01/12 07:15:19;;;;;;;22.80;12.40;;;;;;;-4.92;80.04;100282.05;106780;1266;59540;-40
2023/01/12 07:17:46;;;;;;;23.80;11.90;;;;;;;-4.96;79.61;100281.28;106006;1266;1003735;-38
2023/01/12 07:20:14;;;;;;;23.30;11.70;;;;;;;-4.93;79.84;100280.23;106702;1265;73472;-39
2023/01/12 07:22:42;;;;;;;21.90;11.30;;;;;;;-4.85;79.99;100279.38;106802;1266;67726;-38
2023/01/12 07:25:09;;;;;;;24.30;11.70;;;;;;;-4.79;79.87;100271.91;106704;1266;74834;-38
2023/01/12 07:27:36;;;;;;;26.10;11.90;;;;;;;-4.76;79.85;100275.25;106735;1266;59646;-39
2023/01/12 07:30:04;;;;;;;26.90;13.00;;;;;;;-4.75;79.59;100274.42;106714;1266;61720;-39
2023/01/12 07:32:31;;;;;;;28.30;13.50;;;;;;;-4.77;79.63;100272.38;106764;1266;74933;-39
2023/01/12 07:34:58;;;;;;;26.60;13.40;;;;;;;-4.71;79.34;100270.30;106744;1265;68687;-38
2023/01/12 07:37:25;;;;;;;20.80;11.60;;;;;;;-4.61;79.27;100267.23;106728;1268;74049;-38
2023/01/12 07:39:53;;;;;;;24.90;12.40;;;;;;;-4.56;79.19;100269.75;106702;1265;59737;-38
2023/01/12 07:42:22;;;;;;;22.00;11.60;;;;;;;-4.52;79.20;100263.46;106710;1266;60264;-38
2023/01/12 07:44:51;;;;;;;24.40;12.40;;;;;;;-4.46;79.10;100258.22;106731;1266;73259;-38
2023/01/12 07:47:18;;;;;;;29.40;13.10;;;;;;;-4.44;79.03;100259.95;106015;1266;1003564;-38
2023/01/12 07:49:45;;;;;;;27.60;13.20;;;;;;;-4.43;78.92;100263.15;106727;1266;74177;-38
2023/01/12 07:52:13;;;;;;;25.40;12.50;;;;;;;-4.38;78.51;100252.49;106750;1266;62466;-38
2023/01/12 07:54:40;;;;;;;20.90;11.30;;;;;;;-4.33;78.38;100250.77;106821;1264;61470;-38
2023/01/12 07:57:11;;;;;;;25.80;13.40;;;;;;;-4.28;78.53;100247.04;106740;1265;74501;-38
2023/01/12 07:59:38;;;;;;;26.20;13.10;;;;;;;-4.21;78.49;100248.09;106740;1264;68907;-39
2023/01/12 08:02:05;;;;;;;26.80;13.30;;;;;;;-4.18;78.28;100248.84;106704;1266;73996;-39
2023/01/12 08:04:33;;;;;;;32.70;13.50;;;;;;;-4.19;78.32;100253.16;106737;1266;63997;-39
2023/01/12 08:07:00;;;;;;;28.80;12.50;;;;;;;-4.10;78.32;100259.39;106723;1266;59960;-38
2023/01/12 08:09:27;;;;;;;25.00;12.80;;;;;;;-3.96;78.08;100262.94;106772;1266;73158;-38
2023/01/12 08:11:54;;;;;;;24.10;13.20;;;;;;;-3.90;77.85;100259.64;106661;1265;68308;-39
2023/01/12 08:14:32;;;;;;;24.00;13.20;;;;;;;-3.87;78.00;100266.14;106699;1268;74760;-38
2023/01/12 08:17:00;;;;;;;26.00;12.70;;;;;;;-3.82;77.88;100257.53;106721;1268;60774;-38
2023/01/12 08:19:38;;;;;;;24.40;13.70;;;;;;;-3.78;77.55;100253.61;106047;1266;1003101;-38
2023/01/12 08:22:09;;;;;;;20.70;11.40;;;;;;;-3.75;77.37;100250.76;106619;1271;74619;-38
2023/01/12 08:24:44;;;;;;;21.60;11.60;;;;;;;-3.66;77.01;100250.35;106802;1266;70839;-39
2023/01/12 08:27:12;;;;;;;23.70;11.60;;;;;;;-3.59;76.96;100252.98;106730;1269;73774;-39
2023/01/12 08:29:44;;;;;;;29.50;11.70;;;;;;;-3.55;76.97;100256.91;105993;1264;1003053;-39
2023/01/12 08:32:12;;;;;;;20.70;11.10;;;;;;;-3.53;76.48;100251.48;106779;1266;61967;-38
2023/01/12 08:34:40;;;;;;;21.80;11.40;;;;;;;-3.53;76.66;100251.74;106757;1266;73679;-39
2023/01/12 08:37:08;;;;;;;22.20;11.20;;;;;;;-3.49;76.70;100250.51;106736;1266;69981;-38
2023/01/12 08:39:35;;;;;;;21.10;11.00;;;;;;;-3.40;76.58;100245.86;106725;1266;71773;-38
2023/01/12 08:42:03;;;;;;;22.80;11.50;;;;;;;-3.27;76.15;100244.77;106747;1266;59532;-39
2023/01/12 08:44:33;;;;;;;23.70;11.60;;;;;;;-3.17;76.04;100242.27;106735;1266;61731;-39
2023/01/12 08:47:00;;;;;;;20.40;12.20;;;;;;;-3.14;75.78;100244.80;106734;1266;75294;-39
2023/01/12 08:49:28;;;;;;;26.10;12.50;;;;;;;-3.17;75.50;100244.17;106714;1266;70428;-38
2023/01/12 08:51:55;;;;;;;20.30;11.50;;;;;;;-3.19;75.57;100242.36;106756;1265;74166;-39
2023/01/12 08:54:23;;;;;;;22.90;11.60;;;;;;;-3.20;75.61;100246.86;106687;1266;61634;-39
2023/01/12 08:56:52;;;;;;;24.40;11.10;;;;;;;-3.16;75.68;100243.66;106710;1270;59792;-39
2023/01/12 08:59:20;;;;;;;24.60;11.20;;;;;;;-3.06;75.43;100244.89;106702;1266;75228;-38
2023/01/12 09:01:47;;;;;;;24.60;11.30;;;;;;;-3.02;75.34;100249.80;106748;1266;69067;-39
2023/01/12 09:04:15;;;;;;;24.40;11.30;;;;;;;-3.00;75.34;100251.59;106696;1270;75010;-39
2023/01/12 09:06:43;;;;;;;19.40;10.80;;;;;;;-2.98;75.22;100248.10;106712;1266;60635;-38
2023/01/12 09:09:12;;;;;;;24.10;11.10;;;;;;;-2.98;74.79;100242.58;106009;1265;1003095;-39
2023/01/12 09:11:40;;;;;;;18.50;11.60;;;;;;;-3.04;74.61;100239.13;106802;1267;74376;-38
2023/01/12 09:14:08;;;;;;;20.50;11.30;;;;;;;-3.04;74.72;100239.29;106832;1266;70141;-39
2023/01/12 09:16:35;;;;;;;20.60;10.50;;;;;;;-2.97;74.85;100238.46;106770;1266;74038;-38
2023/01/12 09:19:02;;;;;;;19.50;10.90;;;;;;;-2.99;74.83;100230.44;106742;1265;61797;-38
2023/01/12 09:21:30;;;;;;;20.30;11.50;;;;;;;-2.93;74.17;100246.30;106747;1265;61096;-38
2023/01/12 09:23:57;;;;;;;21.90;11.70;;;;;;;-2.99;74.20;100242.41;106729;1266;75255;-38
2023/01/12 09:26:30;;;;;;;20.30;11.40;;;;;;;-2.98;74.42;100238.30;106773;1265;70746;-38
2023/01/12 09:28:58;;;;;;;19.50;11.00;;;;;;;-2.96;74.60;100241.70;106780;1268;71147;-38
2023/01/12 09:31:26;;;;;;;18.80;11.30;;;;;;;-2.95;74.72;100242.15;106805;1270;62237;-38
2023/01/12 09:33:53;;;;;;;19.50;10.80;;;;;;;-2.87;74.59;100237.30;106739;1265;61782;-38
2023/01/12 09:36:23;;;;;;;24.70;10.70;;;;;;;-2.74;74.52;100236.47;106769;1265;74105;-38
2023/01/12 09:38:50;;;;;;;22.20;11.80;;;;;;;-2.67;74.42;100233.72;106748;1266;70944;-38
2023/01/12 09:47:43;;;;;;;27.50;12.90;;;;;;;-2.60;74.32;100240.86;106739;1265;62360;-38
2023/01/12 09:50:16;;;;;;;23.00;12.00;;;;;;;-2.61;74.25;100235.85;106537;1266;74347;-38
2023/01/12 09:52:56;;;;;;;24.70;12.30;;;;;;;-2.57;74.10;100236.52;106744;1266;69404;-39
2023/01/12 09:55:25;;;;;;;24.10;12.00;;;;;;;-2.51;74.16;100231.98;106721;1266;73709;-38
2023/01/12 09:58:17;;;;;;;24.80;12.40;;;;;;;-2.49;74.12;100229.75;106761;1266;61299;-39
2023/01/12 10:00:50;;;;;;;28.70;11.70;;;;;;;-2.51;73.79;100222.79;106866;1263;60418;-39
2023/01/12 10:03:30;;;;;;;30.20;12.70;;;;;;;-2.56;73.86;100218.06;106866;1262;73907;-39
2023/01/12 16:14:21;;;;;;;31.60;17.80;;;;;;;-2.88;84.28;100164.13;104972;1283;613454;-39
2023/01/12 16:16:48;;;;;;;42.80;17.00;;;;;;;-2.42;82.67;100160.84;106481;1267;214117;-39
2023/01/12 16:19:20;;;;;;;31.80;16.70;;;;;;;-2.50;83.14;100158.45;106610;1266;61350;-39
2023/01/12 16:21:47;;;;;;;35.50;16.30;;;;;;;-2.46;82.99;100155.23;106612;1267;73345;-39
2023/01/12 16:24:14;;;;;;;37.60;16.50;;;;;;;-2.39;82.63;100159.58;106767;1263;69889;-39
2023/01/12 16:26:42;;;;;;;37.00;17.00;;;;;;;-2.41;82.12;100154.69;106796;1263;73365;-39
2023/01/12 16:29:09;;;;;;;37.30;17.50;;;;;;;-2.47;81.68;100151.07;106770;1263;60330;-39
2023/01/12 16:31:37;;;;;;;33.60;17.20;;;;;;;-2.50;81.56;100149.99;106774;1262;61687;-39
2023/01/12 16:34:05;;;;;;;33.30;16.70;;;;;;;-2.55;81.38;100147.84;106779;1263;73709;-39
2023/01/12 16:36:33;;;;;;;35.40;16.00;;;;;;;-2.57;81.00;100144.48;106847;1264;70040;-39
2023/01/12 16:39:00;;;;;;;37.10;16.90;;;;;;;-2.53;80.77;100137.91;106850;1263;71486;-40
2023/01/12 16:41:27;;;;;;;32.00;17.10;;;;;;;-2.55;80.34;100133.08;106874;1269;59611;-39
2023/01/12 16:43:57;;;;;;;39.50;18.10;;;;;;;-2.69;80.37;100118.00;106869;1263;59620;-39
2023/01/12 16:46:24;;;;;;;38.00;18.50;;;;;;;-2.72;80.43;100128.44;106912;1264;74013;-39
2023/01/12 16:48:54;;;;;;;37.10;17.10;;;;;;;-2.73;80.62;100134.09;106854;1266;70092;-39
2023/01/12 16:51:21;;;;;;;;;;;;;;;-2.66;80.70;100129.66;106880;1264;72482;-39
2023/01/12 16:53:50;;;;;;;32.00;15.50;;;;;;;-2.62;80.42;100131.17;106834;1263;60305;-39
2023/01/12 16:56:17;;;;;;;32.10;15.90;;;;;;;-2.61;80.48;100127.77;106851;1263;60514;-39
2023/01/12 16:58:47;;;;;;;32.60;16.60;;;;;;;-2.61;80.07;100126.13;106805;1263;72934;-40
2023/01/12 17:01:16;;;;;;;34.80;17.00;;;;;;;-2.66;80.05;100120.67;106765;1264;70567;-40
2023/01/12 17:03:44;;;;;;;;;;;;;;;-2.69;80.05;100121.66;106772;1268;73670;-40
2023/01/12 17:06:15;;;;;;;31.30;14.50;;;;;;;-2.71;79.93;100130.03;106773;1264;63576;-39
2023/01/12 17:08:42;;;;;;;26.70;14.80;;;;;;;-2.69;79.76;100126.55;106861;1263;60744;-39
2023/01/12 17:11:11;;;;;;;29.20;15.30;;;;;;;-2.67;79.72;100124.23;106820;1264;75059;-39
2023/01/12 17:13:38;;;;;;;39.00;16.60;;;;;;;-2.72;79.65;100125.16;106923;1263;69787;-39
2023/01/12 17:16:09;;;;;;;32.50;17.40;;;;;;;-2.72;79.77;100127.73;106865;1264;72985;-39
2023/01/12 17:18:37;;;;;;;37.90;17.40;;;;;;;-2.75;79.79;100128.30;106837;1265;61019;-39
2023/01/12 17:21:10;;;;;;;29.70;16.00;;;;;;;-2.79;79.97;100127.38;106796;1263;61385;-39
2023/01/12 17:23:39;;;;;;;28.70;14.40;;;;;;;-2.73;79.96;100126.79;106846;1269;71615;-39
2023/01/12 17:26:08;;;;;;;31.20;15.20;;;;;;;-2.67;79.65;100131.59;106977;1264;70208;-39
2023/01/12 17:28:35;;;;;;;29.50;16.20;;;;;;;-2.66;79.59;100134.80;106822;1264;71459;-39
2023/01/12 17:31:11;;;;;;;35.30;16.70;;;;;;;-2.67;79.69;100128.95;106807;1268;61024;-39
2023/01/12 17:33:38;;;;;;;34.90;16.70;;;;;;;-2.69;79.74;100127.45;106860;1267;59739;-39
2023/01/12 17:36:07;;;;;;;41.00;17.30;;;;;;;-2.71;79.70;100119.52;106897;1265;75349;-39
2023/01/12 17:38:35;;;;;;;30.30;15.70;;;;;;;-2.74;79.64;100117.75;106885;1263;70195;-39
2023/01/12 17:41:07;;;;;;;31.00;14.50;;;;;;;-2.71;79.59;100112.36;106848;1263;74389;-39
2023/01/12 17:43:35;;;;;;;33.10;16.20;;;;;;;-2.63;79.69;100108.60;106893;1268;61236;-39
2023/01/12 17:46:06;;;;;;;32.60;16.20;;;;;;;-2.57;79.53;100109.86;106863;1264;60571;-39
2023/01/12 17:48:33;;;;;;;31.50;17.10;;;;;;;-2.57;79.36;100110.70;106856;1264;72921;-39
2023/01/12 17:51:04;;;;;;;37.70;16.40;;;;;;;-2.61;79.22;100115.02;106869;1263;69830;-39
2023/01/12 17:53:32;;;;;;;34.70;17.90;;;;;;;-2.60;79.32;100116.27;106909;1267;74606;-39
2023/01/12 17:56:02;;;;;;;28.70;16.70;;;;;;;-2.60;79.30;100111.06;106846;1264;62591;-39
2023/01/12 17:58:29;;;;;;;26.40;14.20;;;;;;;-2.58;79.00;100111.60;106705;1264;60997;-39
2023/01/12 23:02:58;;;;;;;22.40;11.40;;;;;;;-3.78;85.35;100096.80;104979;1282;613271;-39
2023/01/12 23:04:52;;;;;;;19.30;10.60;;;;;;;-3.44;83.47;100091.65;106545;1264;162262;-39
2023/01/12 23:07:19;;;;;;;19.10;10.50;;;;;;;-3.59;83.90;100088.05;106755;1267;60172;-39
2023/01/12 23:09:46;;;;;;;23.90;10.40;;;;;;;-3.65;83.23;100093.13;106708;1264;73710;-39
2023/01/12 23:12:13;;;;;;;28.00;11.50;;;;;;;-3.67;83.18;100092.08;106739;1267;69655;-39
2023/01/12 23:14:40;;;;;;;23.70;11.30;;;;;;;-3.68;83.60;100088.01;106688;1266;73602;-39
2023/01/12 23:17:07;;;;;;;21.70;11.40;;;;;;;-3.68;83.60;100083.28;106604;1264;59237;-39
2023/01/12 23:19:35;;;;;;;23.90;11.30;;;;;;;-3.71;83.31;100079.15;106573;1272;62813;-40
2023/01/12 23:22:02;;;;;;;31.10;11.50;;;;;;;-3.68;83.29;100072.48;106586;1267;73917;-40
2023/01/12 23:24:29;;;;;;;25.20;12.10;;;;;;;-3.59;82.92;100074.58;106663;1264;71298;-40
2023/01/12 23:26:56;;;;;;;25.70;11.20;;;;;;;-3.55;82.62;100073.29;106670;1267;74759;-40
2023/01/12 23:29:24;;;;;;;22.10;11.20;;;;;;;-3.54;82.54;100075.42;106632;1267;61589;-40
2023/01/12 23:31:51;;;;;;;34.30;13.00;;;;;;;-3.54;82.30;100076.91;106647;1267;61230;-40
2023/01/12 23:34:18;;;;;;;21.30;11.80;;;;;;;-3.57;82.10;100077.03;106660;1266;75344;-38
2023/01/12 23:36:45;;;;;;;30.60;13.00;;;;;;;-3.62;82.00;100083.83;106611;1267;70262;-38
2023/01/12 23:39:12;;;;;;;21.90;11.60;;;;;;;-3.64;81.48;100085.71;106683;1267;74962;-38
2023/01/12 23:41:39;;;;;;;28.00;12.10;;;;;;;-3.64;81.24;100078.56;106725;1268;59633;-38
2023/01/12 23:44:08;;;;;;;27.90;11.70;;;;;;;-3.67;81.23;100083.29;106735;1267;59739;-38
2023/01/12 23:46:36;;;;;;;25.80;11.00;;;;;;;-3.75;81.33;100078.27;106730;1267;75089;-38
2023/01/12 23:49:04;;;;;;;27.20;12.40;;;;;;;-3.78;81.55;100085.39;106683;1267;69427;-39
2023/01/12 23:51:31;;;;;;;24.60;11.10;;;;;;;-3.82;81.55;100084.17;106719;1264;73713;-39
2023/01/12 23:53:59;;;;;;;22.70;11.60;;;;;;;-3.83;81.46;100090.15;105950;1267;1003723;-39
2023/01/12 23:56:27;;;;;;;23.30;11.50;;;;;;;-3.78;81.47;100095.19;106660;1268;59798;-39
2023/01/12 23:58:55;;;;;;;30.30;12.40;;;;;;;-3.73;81.57;100097.31;106694;1268;72557;-39
